Lancaster, Ohio
Current Conditions -  °F | °C
As of 11:53 PM on Wednesday 22 Oct 2014 (Local Time) from KLHQ Reporting Station
Overcast Overcast  
Wind Chill: 49°   Ceiling: 3300
Heat Index: 49°   Visibility: 10mi
Dew Point: 42°   Wind: 3mph
Humidity: 77%   Direction: 320°NW
Pressure: 30.24"   Gusts: NA
Location:  39.71°N, 82.6°W
Report Text: KLHQ 230353Z AUTO 32003KT 10SM OVC033 09/06 A3024 RMK AO2 SLP242 T00940056
Loading
Personal Weather Stations






























Interactive Weather Map
Tropical Storm Tracking
New forecast layout! Learn more

10-Day Weather Forecast

Advertisements
Track Severe Weather on mobile